sensor_id;sensor_type;location;lat;lon;timestamp;P1;durP1;ratioP1;P2;durP2;ratioP2
37205;SDS011;23099;42.636;23.198;2023-02-15T00:00:52;47.57;;;22.67;;
37205;SDS011;23099;42.636;23.198;2023-02-15T00:03:19;46.10;;;23.53;;
37205;SDS011;23099;42.636;23.198;2023-02-15T00:05:46;44.77;;;22.63;;
37205;SDS011;23099;42.636;23.198;2023-02-15T00:08:14;44.97;;;23.33;;
37205;SDS011;23099;42.636;23.198;2023-02-15T00:10:41;45.65;;;24.05;;
37205;SDS011;23099;42.636;23.198;2023-02-15T00:13:07;45.27;;;23.83;;
37205;SDS011;23099;42.636;23.198;2023-02-15T00:15:34;49.53;;;24.27;;
37205;SDS011;23099;42.636;23.198;2023-02-15T00:18:01;47.50;;;24.37;;
37205;SDS011;23099;42.636;23.198;2023-02-15T00:20:27;44.20;;;23.60;;
37205;SDS011;23099;42.636;23.198;2023-02-15T00:22:54;46.80;;;24.17;;
37205;SDS011;23099;42.636;23.198;2023-02-15T00:25:22;45.87;;;22.80;;
37205;SDS011;23099;42.636;23.198;2023-02-15T00:27:49;48.38;;;24.08;;
37205;SDS011;23099;42.636;23.198;2023-02-15T00:30:16;47.83;;;24.43;;
37205;SDS011;23099;42.636;23.198;2023-02-15T00:32:43;45.63;;;23.80;;
37205;SDS011;23099;42.636;23.198;2023-02-15T00:35:09;44.00;;;23.30;;
37205;SDS011;23099;42.636;23.198;2023-02-15T00:37:36;48.33;;;25.00;;
37205;SDS011;23099;42.636;23.198;2023-02-15T00:40:03;44.97;;;23.53;;
37205;SDS011;23099;42.636;23.198;2023-02-15T00:42:32;46.95;;;23.42;;
37205;SDS011;23099;42.636;23.198;2023-02-15T00:44:58;46.03;;;22.88;;
37205;SDS011;23099;42.636;23.198;2023-02-15T00:47:25;43.80;;;23.03;;
37205;SDS011;23099;42.636;23.198;2023-02-15T00:49:52;43.83;;;23.53;;
37205;SDS011;23099;42.636;23.198;2023-02-15T00:52:18;47.67;;;22.97;;
37205;SDS011;23099;42.636;23.198;2023-02-15T00:54:45;50.17;;;23.90;;
37205;SDS011;23099;42.636;23.198;2023-02-15T00:57:12;45.47;;;23.03;;
37205;SDS011;23099;42.636;23.198;2023-02-15T00:59:40;45.00;;;23.07;;
37205;SDS011;23099;42.636;23.198;2023-02-15T01:02:06;42.63;;;22.50;;
37205;SDS011;23099;42.636;23.198;2023-02-15T01:04:33;44.77;;;21.93;;
37205;SDS011;23099;42.636;23.198;2023-02-15T01:07:00;44.57;;;23.10;;
37205;SDS011;23099;42.636;23.198;2023-02-15T01:09:28;44.72;;;23.05;;
37205;SDS011;23099;42.636;23.198;2023-02-15T01:11:55;42.87;;;22.40;;
37205;SDS011;23099;42.636;23.198;2023-02-15T01:14:21;43.70;;;22.10;;
37205;SDS011;23099;42.636;23.198;2023-02-15T01:16:50;48.57;;;23.30;;
37205;SDS011;23099;42.636;23.198;2023-02-15T01:19:16;46.80;;;23.17;;
37205;SDS011;23099;42.636;23.198;2023-02-15T01:21:43;45.80;;;24.43;;
37205;SDS011;23099;42.636;23.198;2023-02-15T01:24:11;48.67;;;23.17;;
37205;SDS011;23099;42.636;23.198;2023-02-15T01:26:38;50.75;;;24.23;;
37205;SDS011;23099;42.636;23.198;2023-02-15T01:29:05;41.47;;;21.77;;
37205;SDS011;23099;42.636;23.198;2023-02-15T01:31:31;48.47;;;23.47;;
37205;SDS011;23099;42.636;23.198;2023-02-15T01:33:59;43.23;;;21.60;;
37205;SDS011;23099;42.636;23.198;2023-02-15T01:36:26;45.08;;;21.92;;
37205;SDS011;23099;42.636;23.198;2023-02-15T01:38:53;46.70;;;23.60;;
37205;SDS011;23099;42.636;23.198;2023-02-15T01:41:20;46.50;;;23.57;;
37205;SDS011;23099;42.636;23.198;2023-02-15T01:43:48;48.28;;;23.83;;
37205;SDS011;23099;42.636;23.198;2023-02-15T01:46:17;42.93;;;22.73;;
37205;SDS011;23099;42.636;23.198;2023-02-15T01:48:48;48.33;;;23.00;;
37205;SDS011;23099;42.636;23.198;2023-02-15T01:51:21;45.50;;;23.17;;
37205;SDS011;23099;42.636;23.198;2023-02-15T01:53:50;46.50;;;21.40;;
37205;SDS011;23099;42.636;23.198;2023-02-15T01:56:20;41.90;;;22.33;;
37205;SDS011;23099;42.636;23.198;2023-02-15T01:58:49;47.07;;;23.07;;
37205;SDS011;23099;42.636;23.198;2023-02-15T02:01:20;43.10;;;22.83;;
37205;SDS011;23099;42.636;23.198;2023-02-15T02:03:49;43.92;;;22.75;;
37205;SDS011;23099;42.636;23.198;2023-02-15T02:06:25;43.40;;;22.33;;
37205;SDS011;23099;42.636;23.198;2023-02-15T02:08:53;42.20;;;21.33;;
37205;SDS011;23099;42.636;23.198;2023-02-15T02:11:20;41.38;;;21.75;;
37205;SDS011;23099;42.636;23.198;2023-02-15T02:13:47;42.40;;;21.27;;
37205;SDS011;23099;42.636;23.198;2023-02-15T02:16:17;42.08;;;21.42;;
37205;SDS011;23099;42.636;23.198;2023-02-15T02:18:51;41.53;;;21.97;;
37205;SDS011;23099;42.636;23.198;2023-02-15T02:24:40;37.50;;;19.80;;
37205;SDS011;23099;42.636;23.198;2023-02-15T02:27:33;40.08;;;21.02;;
37205;SDS011;23099;42.636;23.198;2023-02-15T02:33:23;41.33;;;20.37;;
37205;SDS011;23099;42.636;23.198;2023-02-15T02:36:09;38.50;;;18.90;;
37205;SDS011;23099;42.636;23.198;2023-02-15T02:38:48;38.77;;;20.43;;
37205;SDS011;23099;42.636;23.198;2023-02-15T02:41:28;38.27;;;19.10;;
37205;SDS011;23099;42.636;23.198;2023-02-15T02:43:59;39.37;;;20.40;;
37205;SDS011;23099;42.636;23.198;2023-02-15T02:46:34;43.57;;;19.20;;
37205;SDS011;23099;42.636;23.198;2023-02-15T02:49:08;37.90;;;19.53;;
37205;SDS011;23099;42.636;23.198;2023-02-15T02:51:35;37.15;;;19.20;;
37205;SDS011;23099;42.636;23.198;2023-02-15T02:54:03;37.43;;;18.97;;
37205;SDS011;23099;42.636;23.198;2023-02-15T02:56:33;34.17;;;18.10;;
37205;SDS011;23099;42.636;23.198;2023-02-15T02:59:04;36.77;;;19.00;;
37205;SDS011;23099;42.636;23.198;2023-02-15T03:01:37;37.97;;;18.97;;
37205;SDS011;23099;42.636;23.198;2023-02-15T03:04:09;36.27;;;18.70;;
37205;SDS011;23099;42.636;23.198;2023-02-15T03:06:39;36.83;;;18.50;;
37205;SDS011;23099;42.636;23.198;2023-02-15T03:09:12;37.77;;;18.57;;
37205;SDS011;23099;42.636;23.198;2023-02-15T03:11:43;36.30;;;18.57;;
37205;SDS011;23099;42.636;23.198;2023-02-15T03:14:11;39.47;;;18.88;;
37205;SDS011;23099;42.636;23.198;2023-02-15T03:16:40;35.43;;;19.63;;
37205;SDS011;23099;42.636;23.198;2023-02-15T03:19:12;36.03;;;18.47;;
37205;SDS011;23099;42.636;23.198;2023-02-15T03:21:43;35.57;;;18.57;;
37205;SDS011;23099;42.636;23.198;2023-02-15T03:24:15;38.13;;;19.43;;
37205;SDS011;23099;42.636;23.198;2023-02-15T03:26:48;34.93;;;17.80;;
37205;SDS011;23099;42.636;23.198;2023-02-15T03:29:17;36.40;;;17.43;;
37205;SDS011;23099;42.636;23.198;2023-02-15T03:31:49;37.17;;;18.70;;
37205;SDS011;23099;42.636;23.198;2023-02-15T03:34:22;35.37;;;18.57;;
37205;SDS011;23099;42.636;23.198;2023-02-15T03:36:50;36.72;;;18.80;;
37205;SDS011;23099;42.636;23.198;2023-02-15T03:39:23;35.80;;;18.33;;
37205;SDS011;23099;42.636;23.198;2023-02-15T03:41:57;40.00;;;18.63;;
37205;SDS011;23099;42.636;23.198;2023-02-15T03:44:29;36.57;;;18.67;;
37205;SDS011;23099;42.636;23.198;2023-02-15T03:46:58;32.93;;;16.63;;
37205;SDS011;23099;42.636;23.198;2023-02-15T03:49:32;34.30;;;18.53;;
37205;SDS011;23099;42.636;23.198;2023-02-15T03:52:05;35.93;;;17.83;;
37205;SDS011;23099;42.636;23.198;2023-02-15T03:54:33;33.90;;;17.98;;
37205;SDS011;23099;42.636;23.198;2023-02-15T03:57:13;35.35;;;17.83;;
37205;SDS011;23099;42.636;23.198;2023-02-15T03:59:59;36.00;;;18.98;;
37205;SDS011;23099;42.636;23.198;2023-02-15T04:02:49;34.90;;;18.03;;
37205;SDS011;23099;42.636;23.198;2023-02-15T04:05:36;35.17;;;18.07;;
37205;SDS011;23099;42.636;23.198;2023-02-15T04:08:03;35.50;;;18.87;;
37205;SDS011;23099;42.636;23.198;2023-02-15T04:10:30;37.93;;;18.97;;
37205;SDS011;23099;42.636;23.198;2023-02-15T04:13:14;35.60;;;17.93;;
37205;SDS011;23099;42.636;23.198;2023-02-15T04:15:41;36.43;;;18.67;;
37205;SDS011;23099;42.636;23.198;2023-02-15T04:18:25;36.93;;;19.27;;
37205;SDS011;23099;42.636;23.198;2023-02-15T04:21:11;34.93;;;17.30;;
37205;SDS011;23099;42.636;23.198;2023-02-15T04:23:56;36.27;;;17.97;;
37205;SDS011;23099;42.636;23.198;2023-02-15T04:26:39;38.30;;;19.73;;
37205;SDS011;23099;42.636;23.198;2023-02-15T04:29:06;35.80;;;18.23;;
37205;SDS011;23099;42.636;23.198;2023-02-15T04:31:33;36.47;;;18.87;;
37205;SDS011;23099;42.636;23.198;2023-02-15T04:34:00;40.60;;;19.67;;
37205;SDS011;23099;42.636;23.198;2023-02-15T04:36:28;39.80;;;19.67;;
37205;SDS011;23099;42.636;23.198;2023-02-15T04:38:54;39.55;;;18.92;;
37205;SDS011;23099;42.636;23.198;2023-02-15T04:41:21;34.47;;;18.87;;
37205;SDS011;23099;42.636;23.198;2023-02-15T04:43:48;37.50;;;19.50;;
37205;SDS011;23099;42.636;23.198;2023-02-15T04:46:14;37.00;;;19.33;;
37205;SDS011;23099;42.636;23.198;2023-02-15T04:48:41;40.87;;;20.23;;
37205;SDS011;23099;42.636;23.198;2023-02-15T04:51:08;35.73;;;19.00;;
37205;SDS011;23099;42.636;23.198;2023-02-15T04:53:36;34.97;;;18.13;;
37205;SDS011;23099;42.636;23.198;2023-02-15T04:56:03;37.13;;;18.40;;
37205;SDS011;23099;42.636;23.198;2023-02-15T04:58:30;37.77;;;19.67;;
37205;SDS011;23099;42.636;23.198;2023-02-15T05:00:57;38.03;;;19.57;;
37205;SDS011;23099;42.636;23.198;2023-02-15T05:03:24;38.23;;;19.50;;
37205;SDS011;23099;42.636;23.198;2023-02-15T05:05:51;36.97;;;18.30;;
37205;SDS011;23099;42.636;23.198;2023-02-15T05:08:17;40.00;;;20.40;;
37205;SDS011;23099;42.636;23.198;2023-02-15T05:10:45;42.43;;;19.97;;
37205;SDS011;23099;42.636;23.198;2023-02-15T05:13:13;38.83;;;19.27;;
37205;SDS011;23099;42.636;23.198;2023-02-15T05:15:40;42.17;;;19.50;;
37205;SDS011;23099;42.636;23.198;2023-02-15T05:18:07;37.87;;;20.10;;
37205;SDS011;23099;42.636;23.198;2023-02-15T05:20:34;40.50;;;20.97;;
37205;SDS011;23099;42.636;23.198;2023-02-15T05:23:01;35.10;;;18.43;;
37205;SDS011;23099;42.636;23.198;2023-02-15T05:25:27;39.40;;;18.47;;
37205;SDS011;23099;42.636;23.198;2023-02-15T05:28:13;38.40;;;19.23;;
37205;SDS011;23099;42.636;23.198;2023-02-15T05:30:45;40.57;;;19.67;;
37205;SDS011;23099;42.636;23.198;2023-02-15T05:33:12;35.67;;;18.90;;
37205;SDS011;23099;42.636;23.198;2023-02-15T05:35:39;39.17;;;19.47;;
37205;SDS011;23099;42.636;23.198;2023-02-15T05:38:06;40.17;;;19.10;;
37205;SDS011;23099;42.636;23.198;2023-02-15T05:40:32;47.50;;;21.73;;
37205;SDS011;23099;42.636;23.198;2023-02-15T05:42:59;39.90;;;18.93;;
37205;SDS011;23099;42.636;23.198;2023-02-15T05:45:27;38.93;;;19.20;;
37205;SDS011;23099;42.636;23.198;2023-02-15T05:47:54;34.33;;;18.65;;
37205;SDS011;23099;42.636;23.198;2023-02-15T05:50:23;34.83;;;17.97;;
37205;SDS011;23099;42.636;23.198;2023-02-15T05:52:49;33.33;;;17.60;;
37205;SDS011;23099;42.636;23.198;2023-02-15T05:55:16;37.37;;;18.07;;
37205;SDS011;23099;42.636;23.198;2023-02-15T05:57:43;36.90;;;18.83;;
37205;SDS011;23099;42.636;23.198;2023-02-15T06:00:11;39.13;;;18.80;;
37205;SDS011;23099;42.636;23.198;2023-02-15T06:02:40;36.00;;;18.25;;
37205;SDS011;23099;42.636;23.198;2023-02-15T06:05:07;35.80;;;17.77;;
37205;SDS011;23099;42.636;23.198;2023-02-15T06:07:34;32.90;;;16.83;;
37205;SDS011;23099;42.636;23.198;2023-02-15T06:10:01;33.23;;;17.07;;
37205;SDS011;23099;42.636;23.198;2023-02-15T06:12:28;34.10;;;16.67;;
37205;SDS011;23099;42.636;23.198;2023-02-15T06:14:54;33.80;;;16.93;;
37205;SDS011;23099;42.636;23.198;2023-02-15T06:17:21;36.17;;;17.10;;
37205;SDS011;23099;42.636;23.198;2023-02-15T06:19:49;34.30;;;16.10;;
37205;SDS011;23099;42.636;23.198;2023-02-15T06:22:16;38.38;;;18.25;;
37205;SDS011;23099;42.636;23.198;2023-02-15T06:24:42;34.50;;;17.57;;
37205;SDS011;23099;42.636;23.198;2023-02-15T06:27:09;35.43;;;16.80;;
37205;SDS011;23099;42.636;23.198;2023-02-15T06:29:36;36.23;;;18.67;;
37205;SDS011;23099;42.636;23.198;2023-02-15T06:32:03;32.47;;;16.57;;
37205;SDS011;23099;42.636;23.198;2023-02-15T06:34:30;29.03;;;15.57;;
37205;SDS011;23099;42.636;23.198;2023-02-15T06:36:59;31.77;;;15.87;;
37205;SDS011;23099;42.636;23.198;2023-02-15T06:39:26;30.23;;;14.85;;
37205;SDS011;23099;42.636;23.198;2023-02-15T06:41:52;31.90;;;16.20;;
37205;SDS011;23099;42.636;23.198;2023-02-15T06:44:19;33.20;;;16.57;;
37205;SDS011;23099;42.636;23.198;2023-02-15T06:46:46;30.87;;;16.00;;
37205;SDS011;23099;42.636;23.198;2023-02-15T06:49:12;32.07;;;16.83;;
37205;SDS011;23099;42.636;23.198;2023-02-15T06:51:39;29.47;;;15.20;;
37205;SDS011;23099;42.636;23.198;2023-02-15T06:54:07;32.33;;;16.03;;
37205;SDS011;23099;42.636;23.198;2023-02-15T06:56:34;32.58;;;15.77;;
37205;SDS011;23099;42.636;23.198;2023-02-15T06:59:00;29.97;;;15.60;;
37205;SDS011;23099;42.636;23.198;2023-02-15T07:01:27;32.13;;;15.10;;
37205;SDS011;23099;42.636;23.198;2023-02-15T07:03:54;28.43;;;14.83;;
37205;SDS011;23099;42.636;23.198;2023-02-15T07:06:20;30.00;;;14.00;;
37205;SDS011;23099;42.636;23.198;2023-02-15T07:08:47;25.57;;;13.07;;
37205;SDS011;23099;42.636;23.198;2023-02-15T07:11:15;29.70;;;15.03;;
37205;SDS011;23099;42.636;23.198;2023-02-15T07:14:00;28.87;;;13.47;;
37205;SDS011;23099;42.636;23.198;2023-02-15T07:16:26;27.97;;;14.50;;
37205;SDS011;23099;42.636;23.198;2023-02-15T07:18:53;26.10;;;14.20;;
37205;SDS011;23099;42.636;23.198;2023-02-15T07:21:20;32.13;;;14.57;;
37205;SDS011;23099;42.636;23.198;2023-02-15T07:23:46;27.27;;;13.83;;
37205;SDS011;23099;42.636;23.198;2023-02-15T07:26:13;28.03;;;13.87;;
37205;SDS011;23099;42.636;23.198;2023-02-15T07:28:41;25.53;;;12.93;;
37205;SDS011;23099;42.636;23.198;2023-02-15T07:31:08;24.75;;;13.45;;
37205;SDS011;23099;42.636;23.198;2023-02-15T07:33:34;29.27;;;14.68;;
37205;SDS011;23099;42.636;23.198;2023-02-15T07:36:02;26.90;;;13.18;;
37205;SDS011;23099;42.636;23.198;2023-02-15T07:40:58;26.90;;;13.52;;
37205;SDS011;23099;42.636;23.198;2023-02-15T07:43:25;22.48;;;12.18;;
37205;SDS011;23099;42.636;23.198;2023-02-15T07:45:53;25.38;;;12.65;;
37205;SDS011;23099;42.636;23.198;2023-02-15T07:48:19;25.67;;;12.30;;
37205;SDS011;23099;42.636;23.198;2023-02-15T07:50:47;24.92;;;11.85;;
37205;SDS011;23099;42.636;23.198;2023-02-15T07:53:13;22.95;;;11.82;;
37205;SDS011;23099;42.636;23.198;2023-02-15T07:55:40;24.42;;;13.07;;
37205;SDS011;23099;42.636;23.198;2023-02-15T07:58:07;25.08;;;12.85;;
37205;SDS011;23099;42.636;23.198;2023-02-15T08:00:33;24.83;;;13.25;;
37205;SDS011;23099;42.636;23.198;2023-02-15T08:03:23;24.83;;;12.33;;
37205;SDS011;23099;42.636;23.198;2023-02-15T08:05:54;24.33;;;12.75;;
37205;SDS011;23099;42.636;23.198;2023-02-15T08:08:23;23.05;;;11.50;;
37205;SDS011;23099;42.636;23.198;2023-02-15T08:10:57;24.23;;;11.80;;
37205;SDS011;23099;42.636;23.198;2023-02-15T08:13:42;23.30;;;11.35;;
37205;SDS011;23099;42.636;23.198;2023-02-15T08:16:18;30.35;;;14.25;;
37205;SDS011;23099;42.636;23.198;2023-02-15T08:18:47;27.63;;;13.95;;
37205;SDS011;23099;42.636;23.198;2023-02-15T08:21:14;23.58;;;11.93;;
37205;SDS011;23099;42.636;23.198;2023-02-15T08:23:41;25.07;;;12.87;;
37205;SDS011;23099;42.636;23.198;2023-02-15T08:26:07;23.52;;;12.63;;
37205;SDS011;23099;42.636;23.198;2023-02-15T08:28:34;21.88;;;12.38;;
37205;SDS011;23099;42.636;23.198;2023-02-15T08:31:03;25.60;;;12.40;;
37205;SDS011;23099;42.636;23.198;2023-02-15T08:33:31;25.90;;;12.50;;
37205;SDS011;23099;42.636;23.198;2023-02-15T08:36:03;25.40;;;12.82;;
37205;SDS011;23099;42.636;23.198;2023-02-15T08:38:30;24.27;;;12.38;;
37205;SDS011;23099;42.636;23.198;2023-02-15T08:40:57;24.40;;;11.80;;
37205;SDS011;23099;42.636;23.198;2023-02-15T08:43:24;26.63;;;13.77;;
37205;SDS011;23099;42.636;23.198;2023-02-15T08:45:51;24.52;;;13.07;;
37205;SDS011;23099;42.636;23.198;2023-02-15T08:48:17;29.50;;;12.00;;
37205;SDS011;23099;42.636;23.198;2023-02-15T08:50:44;27.63;;;12.35;;
37205;SDS011;23099;42.636;23.198;2023-02-15T08:53:12;24.42;;;13.15;;
37205;SDS011;23099;42.636;23.198;2023-02-15T08:55:39;25.27;;;13.10;;
37205;SDS011;23099;42.636;23.198;2023-02-15T08:58:05;24.57;;;13.30;;
37205;SDS011;23099;42.636;23.198;2023-02-15T09:00:32;24.70;;;12.23;;
37205;SDS011;23099;42.636;23.198;2023-02-15T09:02:59;22.80;;;12.60;;
37205;SDS011;23099;42.636;23.198;2023-02-15T09:05:25;23.70;;;12.00;;
37205;SDS011;23099;42.636;23.198;2023-02-15T09:07:52;22.98;;;12.18;;
37205;SDS011;23099;42.636;23.198;2023-02-15T09:10:22;25.23;;;12.57;;
37205;SDS011;23099;42.636;23.198;2023-02-15T09:12:48;24.75;;;13.20;;
37205;SDS011;23099;42.636;23.198;2023-02-15T09:15:16;22.57;;;12.07;;
37205;SDS011;23099;42.636;23.198;2023-02-15T09:17:42;23.00;;;11.82;;
37205;SDS011;23099;42.636;23.198;2023-02-15T09:20:09;23.40;;;12.37;;
37205;SDS011;23099;42.636;23.198;2023-02-15T09:22:37;24.58;;;13.23;;
37205;SDS011;23099;42.636;23.198;2023-02-15T09:25:03;28.77;;;13.13;;
37205;SDS011;23099;42.636;23.198;2023-02-15T09:27:32;26.63;;;13.73;;
37205;SDS011;23099;42.636;23.198;2023-02-15T09:29:58;28.58;;;14.45;;
37205;SDS011;23099;42.636;23.198;2023-02-15T09:32:25;25.83;;;13.63;;
37205;SDS011;23099;42.636;23.198;2023-02-15T09:34:52;27.13;;;13.85;;
37205;SDS011;23099;42.636;23.198;2023-02-15T09:37:18;28.83;;;14.57;;
37205;SDS011;23099;42.636;23.198;2023-02-15T09:39:45;26.20;;;13.80;;
37205;SDS011;23099;42.636;23.198;2023-02-15T09:45:23;25.77;;;14.05;;
37205;SDS011;23099;42.636;23.198;2023-02-15T09:48:07;24.92;;;13.63;;
37205;SDS011;23099;42.636;23.198;2023-02-15T09:50:57;27.13;;;14.57;;
37205;SDS011;23099;42.636;23.198;2023-02-15T09:53:38;25.20;;;14.05;;
37205;SDS011;23099;42.636;23.198;2023-02-15T09:56:23;27.88;;;15.45;;
37205;SDS011;23099;42.636;23.198;2023-02-15T09:58:59;26.35;;;14.70;;
37205;SDS011;23099;42.636;23.198;2023-02-15T10:01:35;29.17;;;14.80;;
37205;SDS011;23099;42.636;23.198;2023-02-15T10:04:13;27.23;;;14.65;;
37205;SDS011;23099;42.636;23.198;2023-02-15T10:06:52;31.13;;;15.73;;
37205;SDS011;23099;42.636;23.198;2023-02-15T10:09:30;27.42;;;14.68;;
37205;SDS011;23099;42.636;23.198;2023-02-15T10:12:12;27.63;;;15.38;;
37205;SDS011;23099;42.636;23.198;2023-02-15T10:15:01;26.83;;;15.32;;
37205;SDS011;23099;42.636;23.198;2023-02-15T10:17:41;26.65;;;14.90;;
37205;SDS011;23099;42.636;23.198;2023-02-15T10:20:27;28.10;;;14.90;;
37205;SDS011;23099;42.636;23.198;2023-02-15T10:23:11;27.35;;;15.43;;
37205;SDS011;23099;42.636;23.198;2023-02-15T10:25:49;25.80;;;15.10;;
37205;SDS011;23099;42.636;23.198;2023-02-15T10:28:22;28.02;;;14.77;;
37205;SDS011;23099;42.636;23.198;2023-02-15T10:30:55;29.23;;;15.57;;
37205;SDS011;23099;42.636;23.198;2023-02-15T10:33:33;30.23;;;15.93;;
37205;SDS011;23099;42.636;23.198;2023-02-15T10:36:08;31.13;;;16.45;;
37205;SDS011;23099;42.636;23.198;2023-02-15T10:38:47;28.42;;;16.35;;
37205;SDS011;23099;42.636;23.198;2023-02-15T10:41:24;34.60;;;16.63;;
37205;SDS011;23099;42.636;23.198;2023-02-15T10:44:05;35.08;;;17.75;;
37205;SDS011;23099;42.636;23.198;2023-02-15T10:52:34;24.50;;;14.32;;
37205;SDS011;23099;42.636;23.198;2023-02-15T10:55:14;25.27;;;14.05;;
37205;SDS011;23099;42.636;23.198;2023-02-15T10:57:49;25.83;;;13.35;;
37205;SDS011;23099;42.636;23.198;2023-02-15T11:00:25;26.15;;;14.48;;
37205;SDS011;23099;42.636;23.198;2023-02-15T11:03:05;26.27;;;13.38;;
37205;SDS011;23099;42.636;23.198;2023-02-15T11:05:45;23.13;;;12.93;;
37205;SDS011;23099;42.636;23.198;2023-02-15T11:08:24;25.60;;;14.55;;
37205;SDS011;23099;42.636;23.198;2023-02-15T11:10:53;23.88;;;14.05;;
37205;SDS011;23099;42.636;23.198;2023-02-15T11:13:23;21.80;;;12.18;;
37205;SDS011;23099;42.636;23.198;2023-02-15T11:15:54;23.98;;;13.70;;
37205;SDS011;23099;42.636;23.198;2023-02-15T11:18:26;21.95;;;13.00;;
37205;SDS011;23099;42.636;23.198;2023-02-15T11:20:59;23.65;;;13.38;;
37205;SDS011;23099;42.636;23.198;2023-02-15T11:23:31;20.75;;;12.30;;
37205;SDS011;23099;42.636;23.198;2023-02-15T11:26:02;20.40;;;11.68;;
37205;SDS011;23099;42.636;23.198;2023-02-15T11:28:31;22.33;;;12.63;;
37205;SDS011;23099;42.636;23.198;2023-02-15T11:31:02;22.50;;;13.23;;
37205;SDS011;23099;42.636;23.198;2023-02-15T11:33:42;21.02;;;12.50;;
37205;SDS011;23099;42.636;23.198;2023-02-15T11:36:13;20.77;;;12.57;;
37205;SDS011;23099;42.636;23.198;2023-02-15T11:38:44;20.20;;;12.90;;
37205;SDS011;23099;42.636;23.198;2023-02-15T11:41:14;21.10;;;13.25;;
37205;SDS011;23099;42.636;23.198;2023-02-15T11:43:46;22.17;;;13.52;;
37205;SDS011;23099;42.636;23.198;2023-02-15T11:46:19;22.67;;;13.70;;
37205;SDS011;23099;42.636;23.198;2023-02-15T11:48:48;21.52;;;12.48;;
37205;SDS011;23099;42.636;23.198;2023-02-15T11:51:16;24.13;;;14.20;;
37205;SDS011;23099;42.636;23.198;2023-02-15T11:53:45;21.95;;;12.80;;
37205;SDS011;23099;42.636;23.198;2023-02-15T11:56:13;23.40;;;13.35;;
37205;SDS011;23099;42.636;23.198;2023-02-15T11:58:42;23.05;;;14.45;;
37205;SDS011;23099;42.636;23.198;2023-02-15T12:01:13;22.10;;;12.65;;
37205;SDS011;23099;42.636;23.198;2023-02-15T12:03:46;19.85;;;12.32;;
37205;SDS011;23099;42.636;23.198;2023-02-15T12:06:17;21.55;;;12.07;;
37205;SDS011;23099;42.636;23.198;2023-02-15T12:08:51;20.30;;;12.82;;
37205;SDS011;23099;42.636;23.198;2023-02-15T12:11:22;24.67;;;15.63;;
37205;SDS011;23099;42.636;23.198;2023-02-15T12:13:54;25.95;;;15.30;;
37205;SDS011;23099;42.636;23.198;2023-02-15T12:16:23;26.35;;;15.82;;
37205;SDS011;23099;42.636;23.198;2023-02-15T12:18:51;24.52;;;16.05;;
37205;SDS011;23099;42.636;23.198;2023-02-15T12:21:24;25.20;;;15.10;;
37205;SDS011;23099;42.636;23.198;2023-02-15T12:23:54;26.40;;;15.98;;
37205;SDS011;23099;42.636;23.198;2023-02-15T12:26:24;21.83;;;14.50;;
37205;SDS011;23099;42.636;23.198;2023-02-15T12:28:53;24.13;;;15.45;;
37205;SDS011;23099;42.636;23.198;2023-02-15T12:31:24;23.95;;;16.20;;
37205;SDS011;23099;42.636;23.198;2023-02-15T12:33:56;27.42;;;17.15;;
37205;SDS011;23099;42.636;23.198;2023-02-15T12:36:29;25.05;;;15.80;;
37205;SDS011;23099;42.636;23.198;2023-02-15T12:39:16;25.42;;;15.98;;
37205;SDS011;23099;42.636;23.198;2023-02-15T12:41:46;23.92;;;15.57;;
37205;SDS011;23099;42.636;23.198;2023-02-15T12:44:26;23.73;;;15.25;;
37205;SDS011;23099;42.636;23.198;2023-02-15T12:46:58;23.75;;;15.82;;
37205;SDS011;23099;42.636;23.198;2023-02-15T12:49:28;24.88;;;15.35;;
37205;SDS011;23099;42.636;23.198;2023-02-15T12:51:56;24.55;;;16.15;;
37205;SDS011;23099;42.636;23.198;2023-02-15T12:56:55;25.63;;;15.10;;
37205;SDS011;23099;42.636;23.198;2023-02-15T12:59:23;25.58;;;15.15;;
37205;SDS011;23099;42.636;23.198;2023-02-15T13:01:50;23.55;;;15.18;;
37205;SDS011;23099;42.636;23.198;2023-02-15T13:04:21;22.73;;;14.68;;
37205;SDS011;23099;42.636;23.198;2023-02-15T13:06:51;25.30;;;16.55;;
37205;SDS011;23099;42.636;23.198;2023-02-15T13:09:33;25.17;;;16.58;;
37205;SDS011;23099;42.636;23.198;2023-02-15T13:12:10;25.20;;;15.65;;
37205;SDS011;23099;42.636;23.198;2023-02-15T13:17:10;26.13;;;15.38;;
37205;SDS011;23099;42.636;23.198;2023-02-15T13:19:40;24.25;;;15.57;;
37205;SDS011;23099;42.636;23.198;2023-02-15T13:22:12;26.67;;;16.70;;
37205;SDS011;23099;42.636;23.198;2023-02-15T13:24:41;27.90;;;16.83;;
37205;SDS011;23099;42.636;23.198;2023-02-15T13:27:12;27.33;;;16.88;;
37205;SDS011;23099;42.636;23.198;2023-02-15T13:29:43;29.10;;;17.38;;
37205;SDS011;23099;42.636;23.198;2023-02-15T13:32:15;26.35;;;16.48;;
37205;SDS011;23099;42.636;23.198;2023-02-15T13:34:51;28.33;;;16.90;;
37205;SDS011;23099;42.636;23.198;2023-02-15T13:37:26;27.38;;;17.80;;
37205;SDS011;23099;42.636;23.198;2023-02-15T13:40:07;29.35;;;17.77;;
37205;SDS011;23099;42.636;23.198;2023-02-15T13:42:40;29.42;;;18.13;;
37205;SDS011;23099;42.636;23.198;2023-02-15T13:45:16;28.27;;;16.27;;
37205;SDS011;23099;42.636;23.198;2023-02-15T13:47:56;28.90;;;17.80;;
37205;SDS011;23099;42.636;23.198;2023-02-15T13:50:32;27.75;;;17.08;;
37205;SDS011;23099;42.636;23.198;2023-02-15T13:53:16;27.65;;;17.42;;
37205;SDS011;23099;42.636;23.198;2023-02-15T13:55:57;28.10;;;17.45;;
37205;SDS011;23099;42.636;23.198;2023-02-15T13:58:38;30.50;;;18.10;;
37205;SDS011;23099;42.636;23.198;2023-02-15T14:01:26;30.52;;;18.38;;
37205;SDS011;23099;42.636;23.198;2023-02-15T14:04:17;28.92;;;16.92;;
37205;SDS011;23099;42.636;23.198;2023-02-15T14:07:11;30.75;;;18.50;;
37205;SDS011;23099;42.636;23.198;2023-02-15T14:10:05;28.55;;;17.10;;
37205;SDS011;23099;42.636;23.198;2023-02-15T14:12:52;29.25;;;17.38;;
37205;SDS011;23099;42.636;23.198;2023-02-15T14:15:40;31.17;;;17.88;;
37205;SDS011;23099;42.636;23.198;2023-02-15T14:18:15;34.85;;;19.67;;
37205;SDS011;23099;42.636;23.198;2023-02-15T14:20:53;33.03;;;19.00;;
37205;SDS011;23099;42.636;23.198;2023-02-15T14:23:32;32.42;;;18.92;;
37205;SDS011;23099;42.636;23.198;2023-02-15T14:26:09;30.25;;;17.60;;
37205;SDS011;23099;42.636;23.198;2023-02-15T14:28:46;32.00;;;18.52;;
37205;SDS011;23099;42.636;23.198;2023-02-15T14:31:24;33.00;;;19.48;;
37205;SDS011;23099;42.636;23.198;2023-02-15T14:33:56;34.95;;;19.88;;
37205;SDS011;23099;42.636;23.198;2023-02-15T14:36:24;29.17;;;17.27;;
37205;SDS011;23099;42.636;23.198;2023-02-15T14:38:57;34.30;;;18.88;;
37205;SDS011;23099;42.636;23.198;2023-02-15T14:41:55;31.00;;;18.30;;
37205;SDS011;23099;42.636;23.198;2023-02-15T14:44:27;30.88;;;18.50;;
37205;SDS011;23099;42.636;23.198;2023-02-15T14:47:04;37.47;;;19.60;;
37205;SDS011;23099;42.636;23.198;2023-02-15T14:49:35;34.65;;;18.77;;
37205;SDS011;23099;42.636;23.198;2023-02-15T14:52:04;29.40;;;17.10;;
37205;SDS011;23099;42.636;23.198;2023-02-15T14:57:23;32.83;;;19.00;;